Time;durP1;ratioP1;P1;durP2;ratioP2;P2;SDS_P1;SDS_P2;PMS_P1;PMS_P2;Temp;Humidity;BMP_temperature;BMP_pressure;BME280_temperature;BME280_humidity;BME280_pressure;Samples;Min_cycle;Max_cycle;Signal;HPM_P1;HPM_P2
2024/02/25 00:00:54;;;;;;;17.42;10.30;;;;;;;2.17;95.40;94996.22;2097520;28;20044;-62
2024/02/25 00:01:55;;;;;;;17.70;10.00;;;;;;;2.16;95.00;94994.53;2097755;28;20473;-63
2024/02/25 00:02:57;;;;;;;21.98;11.23;;;;;;;2.15;95.40;95000.53;2097934;28;20048;-62
2024/02/25 00:03:58;;;;;;;18.17;10.10;;;;;;;2.15;95.59;94999.72;2098416;28;20036;-62
2024/02/25 00:04:59;;;;;;;20.52;10.82;;;;;;;2.10;95.85;95004.97;2097769;28;20476;-63
2024/02/25 00:06:00;;;;;;;21.02;9.65;;;;;;;2.09;96.14;95000.72;2098108;28;20040;-62
2024/02/25 00:07:02;;;;;;;18.83;10.32;;;;;;;2.09;95.98;95005.03;2098128;28;20052;-62
2024/02/25 00:08:03;;;;;;;17.92;10.77;;;;;;;2.10;96.08;95006.69;2098225;28;20048;-62
2024/02/25 00:09:05;;;;;;;17.85;10.48;;;;;;;2.10;96.13;95010.09;2097686;28;20404;-62
2024/02/25 00:10:07;;;;;;;18.35;10.38;;;;;;;2.08;96.18;95003.31;2097724;28;20052;-62
2024/02/25 00:11:08;;;;;;;18.80;10.82;;;;;;;2.12;96.32;95004.94;2098041;28;20040;-62
2024/02/25 00:12:09;;;;;;;18.90;11.35;;;;;;;2.10;95.65;95010.09;2097476;28;20048;-62
2024/02/25 00:13:10;;;;;;;17.70;11.32;;;;;;;2.11;95.92;95009.22;2097869;28;20507;-65
2024/02/25 00:14:11;;;;;;;17.40;9.80;;;;;;;2.11;95.83;95018.59;2097820;28;20041;-63
2024/02/25 00:15:12;;;;;;;14.00;9.48;;;;;;;2.14;95.10;95013.41;2097182;28;20036;-62
2024/02/25 00:16:13;;;;;;;16.67;10.07;;;;;;;2.14;95.33;95013.41;2097855;28;20048;-62
2024/02/25 00:17:14;;;;;;;16.52;9.93;;;;;;;2.14;95.36;95016.81;2097627;28;20047;-62
2024/02/25 00:18:15;;;;;;;15.90;9.60;;;;;;;2.16;95.29;95021.88;2097749;28;20052;-62
2024/02/25 00:19:16;;;;;;;15.52;9.32;;;;;;;2.16;95.52;95021.88;2098247;28;20029;-62
2024/02/25 00:20:18;;;;;;;17.55;9.73;;;;;;;2.16;95.23;95024.44;2097463;28;20049;-63
2024/02/25 00:21:19;;;;;;;15.70;9.23;;;;;;;2.13;95.22;95016.84;2097889;28;20056;-62
2024/02/25 00:22:20;;;;;;;18.75;10.43;;;;;;;2.13;95.11;95021.97;2097601;28;20053;-62
2024/02/25 00:23:21;;;;;;;16.25;10.07;;;;;;;2.10;95.72;95016.94;2098324;28;20040;-62
2024/02/25 00:24:22;;;;;;;15.23;8.82;;;;;;;2.15;95.59;95020.19;2097861;28;20049;-62
2024/02/25 00:25:23;;;;;;;14.60;9.00;;;;;;;2.15;95.52;95020.19;2098429;28;20040;-62
2024/02/25 00:26:24;;;;;;;15.20;9.90;;;;;;;2.14;95.27;95021.94;2097492;28;20056;-62
2024/02/25 00:27:26;;;;;;;18.65;11.02;;;;;;;2.13;95.59;95016.84;2097964;28;20131;-62
2024/02/25 00:28:27;;;;;;;15.55;10.25;;;;;;;2.13;95.70;95027.09;2098062;28;20053;-62
2024/02/25 00:29:28;;;;;;;18.30;10.48;;;;;;;2.13;95.45;95016.84;2088286;28;20053;-63
2024/02/25 00:30:29;;;;;;;17.85;10.90;;;;;;;2.12;95.75;95021.13;2088812;28;20060;-63
2024/02/25 00:31:30;;;;;;;17.70;10.38;;;;;;;2.12;97.00;95026.25;2098132;28;20484;-62
2024/02/25 00:32:31;;;;;;;16.65;10.02;;;;;;;2.11;96.52;95022.03;2098259;28;20487;-62
2024/02/25 00:33:32;;;;;;;22.88;11.48;;;;;;;2.09;96.54;95025.50;2098220;28;20047;-62
2024/02/25 00:34:33;;;;;;;18.50;10.77;;;;;;;2.07;96.52;95022.97;2097924;28;20076;-62
2024/02/25 00:35:34;;;;;;;19.42;9.75;;;;;;;2.10;96.65;95028.00;2097457;28;20055;-62
2024/02/25 00:36:36;;;;;;;19.90;10.73;;;;;;;2.08;96.83;95023.81;2089562;28;20049;-62
2024/02/25 00:37:38;;;;;;;17.17;10.13;;;;;;;2.08;97.32;95034.06;2089283;28;20045;-62
2024/02/25 00:38:39;;;;;;;16.73;10.18;;;;;;;2.06;97.17;95023.88;2097183;28;20052;-62
2024/02/25 00:39:40;;;;;;;16.25;10.55;;;;;;;2.05;97.26;95022.19;2097996;28;20051;-62
2024/02/25 00:40:41;;;;;;;17.88;11.13;;;;;;;2.05;96.99;95018.78;2089576;28;20436;-62
2024/02/25 00:41:43;;;;;;;16.77;10.23;;;;;;;2.10;96.79;95029.75;2089208;28;20045;-62
2024/02/25 00:42:44;;;;;;;15.73;9.90;;;;;;;2.12;96.51;95020.28;2097996;28;20068;-62
2024/02/25 00:43:45;;;;;;;16.25;9.48;;;;;;;2.11;96.62;95024.59;2098337;28;20044;-63
2024/02/25 00:44:48;;;;;;;16.92;9.80;;;;;;;2.13;96.75;95029.66;2098085;28;20047;-62
2024/02/25 00:45:49;;;;;;;15.57;10.18;;;;;;;2.12;96.69;95023.69;2098073;28;20037;-62
2024/02/25 00:46:51;;;;;;;14.43;9.73;;;;;;;2.12;96.51;95026.25;2098184;28;20035;-63
2024/02/25 00:47:52;;;;;;;17.77;10.07;;;;;;;2.13;96.58;95029.66;2098288;28;20047;-62
2024/02/25 00:48:53;;;;;;;15.13;9.93;;;;;;;2.14;96.94;95027.06;2098280;28;20503;-64
2024/02/25 00:49:54;;;;;;;16.45;10.55;;;;;;;2.12;96.58;95020.28;2098148;28;20044;-63
2024/02/25 00:50:55;;;;;;;15.02;10.13;;;;;;;2.09;96.67;95020.41;2098372;28;20036;-64
2024/02/25 00:51:56;;;;;;;16.30;10.07;;;;;;;2.06;96.71;95023.88;2098973;28;20049;-61
2024/02/25 00:52:57;;;;;;;17.23;10.52;;;;;;;2.11;96.91;95024.59;2099419;28;20045;-62
2024/02/25 00:53:58;;;;;;;15.30;9.88;;;;;;;2.14;96.67;95024.50;2099080;28;20049;-62
2024/02/25 00:55:00;;;;;;;16.25;10.48;;;;;;;2.13;96.28;95022.78;2099693;28;20103;-62
2024/02/25 00:56:02;;;;;;;16.15;10.27;;;;;;;2.14;96.21;95021.09;2099651;28;20039;-63
2024/02/25 00:57:03;;;;;;;18.60;10.85;;;;;;;2.14;96.28;95021.94;2099818;28;20036;-63
2024/02/25 00:58:04;;;;;;;17.10;10.48;;;;;;;2.14;96.70;95031.34;2098984;28;20066;-64
2024/02/25 00:59:06;;;;;;;20.05;10.40;;;;;;;2.16;97.06;95029.56;2099463;28;20044;-63
2024/02/25 01:00:07;;;;;;;18.88;10.82;;;;;;;2.16;96.93;95027.00;2099173;28;20401;-63
2024/02/25 01:01:14;;;;;;;17.13;10.25;;;;;;;2.16;97.01;95022.69;2099329;28;20036;-67
2024/02/25 01:02:15;;;;;;;14.98;9.30;;;;;;;2.16;97.19;95020.13;2090527;28;20424;-63
2024/02/25 01:03:16;;;;;;;18.45;9.70;;;;;;;2.16;97.20;95020.13;2091783;28;20037;-62
2024/02/25 01:04:18;;;;;;;15.30;9.98;;;;;;;2.15;97.44;95023.59;2099211;28;20504;-62
2024/02/25 01:05:21;;;;;;;17.88;10.65;;;;;;;2.15;97.17;95017.63;2098968;28;20048;-62
2024/02/25 01:06:22;;;;;;;18.27;9.75;;;;;;;2.16;97.15;95016.75;2099540;28;20048;-62
2024/02/25 01:07:24;;;;;;;16.80;10.55;;;;;;;2.13;97.44;95027.09;2099577;28;20105;-62
2024/02/25 01:08:25;;;;;;;14.35;9.90;;;;;;;2.10;97.35;95022.06;2099534;28;20392;-63
2024/02/25 01:09:27;;;;;;;15.55;9.90;;;;;;;2.09;97.38;95020.41;2099195;28;20040;-62
2024/02/25 01:10:28;;;;;;;14.90;9.48;;;;;;;2.09;97.80;95015.28;2099864;28;20036;-62
2024/02/25 01:11:29;;;;;;;15.30;9.60;;;;;;;2.09;97.63;95017.81;2099711;28;20378;-62
2024/02/25 01:12:30;;;;;;;17.15;9.85;;;;;;;2.08;97.54;95014.41;2099564;28;20040;-63
2024/02/25 01:13:33;;;;;;;16.77;9.98;;;;;;;2.04;97.91;95009.44;2099189;28;20412;-62
2024/02/25 01:14:34;;;;;;;15.68;10.18;;;;;;;2.04;97.87;95012.84;2099390;28;20047;-63
2024/02/25 01:15:35;;;;;;;15.18;9.98;;;;;;;2.06;97.87;95013.63;2099307;28;20052;-62
2024/02/25 01:16:38;;;;;;;15.00;9.80;;;;;;;2.08;97.72;95006.72;2098886;28;20480;-62
2024/02/25 01:17:39;;;;;;;16.52;10.30;;;;;;;2.10;97.35;95014.38;2099312;28;20055;-62
2024/02/25 01:18:40;;;;;;;15.80;9.35;;;;;;;2.08;97.31;95009.28;2099491;28;20044;-63
2024/02/25 01:19:41;;;;;;;15.35;9.32;;;;;;;2.09;97.37;95010.16;2098836;28;20412;-62
2024/02/25 01:20:42;;;;;;;18.23;10.02;;;;;;;2.07;97.71;95017.84;2099201;28;20051;-62
2024/02/25 01:21:43;;;;;;;15.75;9.77;;;;;;;2.04;98.15;95009.44;2099091;28;20077;-63
2024/02/25 01:22:45;;;;;;;13.45;9.32;;;;;;;2.06;98.13;95005.94;2098461;28;20036;-62
2024/02/25 01:23:46;;;;;;;16.50;9.93;;;;;;;2.08;99.12;95006.72;2099271;28;20040;-62
2024/02/25 01:24:47;;;;;;;15.40;9.05;;;;;;;2.09;98.22;94999.91;2099328;28;20032;-62
2024/02/25 01:25:48;;;;;;;15.20;9.30;;;;;;;2.11;98.05;95010.91;2098696;28;20048;-62
2024/02/25 01:26:49;;;;;;;13.30;8.70;;;;;;;2.11;97.71;95000.66;2099503;28;20044;-62
2024/02/25 01:27:50;;;;;;;15.98;9.65;;;;;;;2.12;97.71;94994.69;2099340;28;20048;-63
2024/02/25 01:28:51;;;;;;;16.92;9.80;;;;;;;2.12;97.86;94995.50;2099643;28;20037;-62
2024/02/25 01:29:52;;;;;;;16.60;10.18;;;;;;;2.09;98.26;94997.34;2098794;28;20396;-62
2024/02/25 01:30:53;;;;;;;15.75;9.57;;;;;;;2.08;98.37;95000.75;2099432;28;20021;-62
2024/02/25 01:31:56;;;;;;;15.48;8.77;;;;;;;2.08;98.19;94996.47;2099196;28;20039;-62
2024/02/25 01:32:57;;;;;;;14.38;8.98;;;;;;;2.08;97.97;94999.03;2100652;28;20396;-63
2024/02/25 01:33:58;;;;;;;14.35;9.20;;;;;;;2.07;97.87;94994.81;2100451;28;20044;-63
2024/02/25 01:34:59;;;;;;;13.57;8.07;;;;;;;2.09;97.64;94999.91;2100702;28;20045;-68
2024/02/25 01:36:00;;;;;;;14.18;8.73;;;;;;;2.09;97.69;95003.28;2100288;28;20686;-62
2024/02/25 01:37:01;;;;;;;15.05;8.43;;;;;;;2.09;97.63;94995.63;2099926;28;20044;-63
2024/02/25 01:38:03;;;;;;;14.88;9.32;;;;;;;2.11;97.61;94992.97;2099647;28;20048;-62
2024/02/25 01:39:04;;;;;;;12.90;8.65;;;;;;;2.11;97.46;94990.44;2099394;28;20044;-70
2024/02/25 01:40:06;;;;;;;15.50;8.07;;;;;;;2.06;97.68;94987.16;2100404;28;20485;-64
2024/02/25 01:41:07;;;;;;;14.88;8.60;;;;;;;2.09;97.72;94997.34;2100140;28;20033;-63
2024/02/25 01:42:08;;;;;;;13.60;7.93;;;;;;;2.08;97.93;95005.88;2099517;28;20473;-62
2024/02/25 01:43:10;;;;;;;15.27;8.93;;;;;;;2.09;98.05;95005.03;2099635;28;20028;-63
2024/02/25 01:44:11;;;;;;;16.42;8.77;;;;;;;2.05;98.43;95005.97;2099056;28;20052;-63
2024/02/25 01:45:12;;;;;;;13.25;8.45;;;;;;;1.94;98.84;95001.19;2100217;28;20464;-63
2024/02/25 01:46:13;;;;;;;15.10;8.48;;;;;;;1.92;98.91;94997.81;2099572;28;20037;-67
2024/02/25 01:47:14;;;;;;;14.82;8.15;;;;;;;1.94;98.79;95003.75;2099934;28;20044;-67
2024/02/25 01:48:19;;;;;;;12.82;7.55;;;;;;;1.95;98.81;94996.03;2099682;28;20408;-63
2024/02/25 01:49:20;;;;;;;14.57;8.52;;;;;;;1.98;98.68;95006.19;2100001;28;20040;-63
2024/02/25 01:50:21;;;;;;;13.75;8.68;;;;;;;1.97;98.62;94995.97;2099435;28;20040;-63
2024/02/25 01:51:22;;;;;;;13.68;8.30;;;;;;;1.94;98.77;94998.63;2090851;28;20452;-63
2024/02/25 01:52:24;;;;;;;13.68;8.43;;;;;;;1.91;99.05;94999.56;2082604;28;20041;-63
2024/02/25 01:53:25;;;;;;;14.40;8.25;;;;;;;1.93;99.13;94999.50;2081920;28;20049;-67
2024/02/25 01:54:26;;;;;;;14.10;8.35;;;;;;;1.93;99.22;94999.50;2074658;28;20038;-62
2024/02/25 01:55:34;;;;;;;13.38;9.02;;;;;;;1.94;99.50;95003.75;2074086;28;20053;-63
2024/02/25 01:56:35;;;;;;;14.15;8.48;;;;;;;1.97;99.28;95007.03;2091105;28;20057;-63
2024/02/25 01:57:36;;;;;;;14.75;8.43;;;;;;;1.95;99.25;95003.72;2089965;28;20370;-63
2024/02/25 01:58:37;;;;;;;13.05;7.97;;;;;;;1.98;99.26;95001.06;2090816;28;20033;-63
2024/02/25 01:59:39;;;;;;;12.95;8.73;;;;;;;2.00;99.25;95008.66;2089899;28;20053;-63
2024/02/25 02:00:40;;;;;;;12.63;7.95;;;;;;;2.03;99.41;95007.75;2090733;28;20045;-63
2024/02/25 02:01:41;;;;;;;15.98;8.90;;;;;;;2.05;99.20;95003.41;2065599;28;20046;-63
2024/02/25 02:02:42;;;;;;;14.35;8.57;;;;;;;2.05;99.24;94999.13;2072935;28;20426;-63
2024/02/25 02:03:43;;;;;;;13.77;9.35;;;;;;;2.04;99.33;95001.75;2098996;28;20047;-63
2024/02/25 02:04:45;;;;;;;12.57;7.80;;;;;;;2.06;99.14;95002.53;2098835;28;20120;-63
2024/02/25 02:05:46;;;;;;;16.40;8.68;;;;;;;2.09;98.93;94994.78;2098557;28;20079;-63
2024/02/25 02:06:47;;;;;;;12.82;8.38;;;;;;;2.08;99.14;95004.16;2098943;28;20400;-63
2024/02/25 02:07:48;;;;;;;16.23;8.75;;;;;;;2.07;98.71;94997.38;2098142;28;20048;-63
2024/02/25 02:08:49;;;;;;;12.70;7.90;;;;;;;2.07;98.50;94994.81;2099010;28;20043;-63
2024/02/25 02:09:51;;;;;;;12.65;8.45;;;;;;;2.09;98.73;94995.63;2089823;28;20116;-63
2024/02/25 02:10:52;;;;;;;12.80;7.35;;;;;;;2.10;98.46;94991.31;2090410;28;20555;-63
2024/02/25 02:11:57;;;;;;;12.45;7.20;;;;;;;2.09;98.32;94981.97;2099097;28;20032;-64
2024/02/25 02:13:01;;;;;;;14.05;7.82;;;;;;;2.10;98.48;94983.63;2090445;28;20041;-62
2024/02/25 02:14:02;;;;;;;11.82;7.60;;;;;;;2.10;98.32;94989.59;2089982;28;20052;-62
2024/02/25 02:15:04;;;;;;;11.98;7.15;;;;;;;2.10;98.50;94991.31;2098642;28;20396;-61
2024/02/25 02:16:05;;;;;;;12.75;7.90;;;;;;;2.13;98.42;94988.66;2099366;28;20036;-65
2024/02/25 02:17:06;;;;;;;11.25;7.28;;;;;;;2.13;98.25;94986.09;2098230;28;20404;-63
2024/02/25 02:18:07;;;;;;;11.05;6.75;;;;;;;2.14;97.82;94990.34;2098998;28;20033;-63
2024/02/25 02:19:08;;;;;;;10.30;6.50;;;;;;;2.14;97.88;94986.06;2099089;28;20040;-63
2024/02/25 02:20:18;;;;;;;11.73;7.45;;;;;;;2.17;97.94;94985.97;2098717;28;20476;-62
2024/02/25 02:21:19;;;;;;;25.00;12.43;;;;;;;2.20;97.56;94988.44;2098354;28;20499;-63
2024/02/25 02:22:20;;;;;;;13.05;7.10;;;;;;;2.24;97.58;94986.59;2098425;28;20052;-63
2024/02/25 02:23:21;;;;;;;12.00;6.65;;;;;;;2.26;97.35;94995.09;2098682;28;20057;-62
2024/02/25 02:24:22;;;;;;;11.80;6.00;;;;;;;2.27;97.11;94989.06;2098854;28;20059;-62
2024/02/25 02:25:23;;;;;;;9.55;6.15;;;;;;;2.27;96.93;94989.06;2098713;28;20041;-63
2024/02/25 02:26:24;;;;;;;10.05;6.13;;;;;;;2.26;96.82;94989.97;2098278;28;20408;-63
2024/02/25 02:27:26;;;;;;;9.45;5.70;;;;;;;2.28;96.76;94995.06;2099202;28;20036;-63
2024/02/25 02:28:27;;;;;;;8.77;5.63;;;;;;;2.27;96.60;94989.06;2098993;28;20041;-62
2024/02/25 02:29:28;;;;;;;10.23;5.60;;;;;;;2.31;96.97;94992.41;2099284;28;20472;-63
2024/02/25 02:30:29;;;;;;;8.45;5.45;;;;;;;2.30;97.01;94991.56;2089504;28;20052;-63
2024/02/25 02:31:30;;;;;;;10.48;5.70;;;;;;;2.31;96.89;94989.84;2089951;28;20052;-63
2024/02/25 02:32:31;;;;;;;8.00;4.97;;;;;;;2.29;97.08;94992.44;2098909;28;20455;-63
2024/02/25 02:33:32;;;;;;;9.23;5.22;;;;;;;2.27;97.17;94994.19;2098645;28;20045;-63
2024/02/25 02:34:35;;;;;;;9.27;5.50;;;;;;;2.30;96.96;94985.56;2098868;28;20074;-63
2024/02/25 02:35:36;;;;;;;9.45;5.18;;;;;;;2.31;97.10;94990.66;2098867;28;20488;-63
2024/02/25 02:36:37;;;;;;;10.80;5.78;;;;;;;2.35;97.26;94992.25;2099086;28;20044;-63
2024/02/25 02:37:38;;;;;;;9.50;5.80;;;;;;;2.33;97.00;94986.34;2099003;28;20047;-63
2024/02/25 02:38:39;;;;;;;10.80;6.55;;;;;;;2.34;96.99;94989.72;2099096;28;20040;-65
2024/02/25 02:39:41;;;;;;;9.55;5.50;;;;;;;2.30;97.17;94993.25;2098893;28;20064;-62
2024/02/25 02:40:42;;;;;;;9.70;5.30;;;;;;;2.29;97.46;94991.59;2098514;28;20061;-63
2024/02/25 02:41:43;;;;;;;6.82;4.75;;;;;;;2.26;97.57;94986.56;2098994;28;20037;-63
2024/02/25 02:42:45;;;;;;;8.75;5.40;;;;;;;2.22;97.92;94985.84;2098234;28;20052;-63
2024/02/25 02:43:46;;;;;;;7.95;5.20;;;;;;;2.23;98.06;94996.91;2098307;28;20064;-63
2024/02/25 02:44:50;;;;;;;10.48;5.90;;;;;;;2.24;97.99;94989.16;2098695;28;20044;-63
2024/02/25 02:45:51;;;;;;;10.07;5.60;;;;;;;2.23;98.15;94977.25;2089869;28;20028;-63
2024/02/25 02:46:53;;;;;;;7.53;4.50;;;;;;;2.25;97.94;94980.63;2089541;28;20056;-63
2024/02/25 02:47:54;;;;;;;8.25;5.00;;;;;;;2.27;98.26;94988.22;2098096;28;20052;-63
2024/02/25 02:48:55;;;;;;;8.18;5.38;;;;;;;2.25;97.96;94995.16;2098358;28;20052;-63
2024/02/25 02:49:56;;;;;;;7.68;5.28;;;;;;;2.24;98.19;94986.59;2098804;28;20044;-63
2024/02/25 02:50:57;;;;;;;8.48;5.40;;;;;;;2.25;98.04;94988.31;2098342;28;20044;-63
2024/02/25 02:51:59;;;;;;;8.30;5.13;;;;;;;2.25;98.05;94987.47;2098871;28;20028;-63
2024/02/25 02:53:00;;;;;;;7.95;4.72;;;;;;;2.24;98.22;94989.16;2098247;28;20044;-63
2024/02/25 02:54:02;;;;;;;7.53;4.45;;;;;;;2.24;98.32;94984.03;2098091;28;20037;-63
2024/02/25 02:55:04;;;;;;;9.82;4.85;;;;;;;2.21;98.71;94982.41;2098406;28;20045;-63
2024/02/25 02:56:05;;;;;;;6.75;4.28;;;;;;;2.21;98.53;94982.41;2098160;28;20047;-63
2024/02/25 02:57:06;;;;;;;9.23;5.00;;;;;;;2.21;98.79;94979.03;2098707;28;20059;-63
2024/02/25 02:58:07;;;;;;;7.40;5.10;;;;;;;2.20;98.94;94978.19;2089478;28;20043;-63
2024/02/25 02:59:08;;;;;;;7.13;4.43;;;;;;;2.19;98.88;94983.34;2081214;28;20034;-63
2024/02/25 03:00:11;;;;;;;11.05;4.78;;;;;;;2.20;99.12;94985.03;2089748;28;20063;-63
2024/02/25 03:01:12;;;;;;;10.60;5.25;;;;;;;2.20;99.38;94978.19;2097903;28;20554;-63
2024/02/25 03:02:13;;;;;;;7.55;4.43;;;;;;;2.19;99.10;94978.22;2098293;28;20051;-63
2024/02/25 03:03:14;;;;;;;8.05;4.70;;;;;;;2.19;99.42;94980.78;2098438;28;20046;-63
2024/02/25 03:04:15;;;;;;;6.38;3.90;;;;;;;2.21;99.39;94982.41;2097422;28;20040;-62
2024/02/25 03:05:16;;;;;;;6.72;4.45;;;;;;;2.23;99.13;94979.00;2098125;28;20398;-63
2024/02/25 03:06:18;;;;;;;9.32;4.18;;;;;;;2.25;98.92;94985.75;2098618;28;20368;-63
2024/02/25 03:07:19;;;;;;;7.07;4.18;;;;;;;2.27;98.94;94983.94;2098057;28;20419;-63
2024/02/25 03:08:20;;;;;;;6.65;3.92;;;;;;;2.28;98.83;94980.50;2098876;28;20029;-63
2024/02/25 03:09:22;;;;;;;7.30;3.88;;;;;;;2.30;98.66;94975.31;2097914;28;20048;-63
2024/02/25 03:10:23;;;;;;;6.95;4.15;;;;;;;2.30;98.58;94977.88;2098552;28;20036;-63
2024/02/25 03:11:24;;;;;;;6.72;3.97;;;;;;;2.31;98.33;94975.28;2097686;28;20059;-63
2024/02/25 03:12:25;;;;;;;8.57;4.30;;;;;;;2.34;98.07;94972.63;2098784;28;20403;-63
2024/02/25 03:13:26;;;;;;;7.22;4.07;;;;;;;2.38;97.79;94981.91;2098591;28;20041;-63
2024/02/25 03:14:27;;;;;;;6.20;3.97;;;;;;;2.38;97.85;94976.78;2098395;28;20037;-63
2024/02/25 03:15:28;;;;;;;8.30;4.47;;;;;;;2.37;97.80;94969.13;2098769;28;20041;-63
2024/02/25 03:16:29;;;;;;;9.38;4.25;;;;;;;2.36;97.65;94973.44;2097516;28;20052;-63
2024/02/25 03:17:30;;;;;;;6.75;4.28;;;;;;;2.34;98.01;94970.06;2097534;28;20056;-63
2024/02/25 03:18:32;;;;;;;5.95;3.90;;;;;;;2.35;97.86;94982.00;2098784;28;20167;-63
2024/02/25 03:19:33;;;;;;;7.82;3.72;;;;;;;2.34;98.23;94976.91;2098425;28;20051;-63
2024/02/25 03:20:34;;;;;;;8.63;3.92;;;;;;;2.33;98.06;94978.66;2097984;28;20052;-63
2024/02/25 03:21:44;;;;;;;6.38;4.28;;;;;;;2.30;98.12;94983.88;2098798;28;20040;-63
2024/02/25 03:22:46;;;;;;;6.10;4.10;;;;;;;2.27;97.99;94978.81;2098559;28;20048;-62
2024/02/25 03:23:47;;;;;;;6.38;3.92;;;;;;;2.30;98.00;94978.75;2098433;28;20052;-63
2024/02/25 03:24:48;;;;;;;6.40;4.00;;;;;;;2.29;97.80;94982.19;2098020;28;20400;-63
2024/02/25 03:25:50;;;;;;;8.35;4.18;;;;;;;2.29;98.12;94982.19;2098117;28;20048;-63
2024/02/25 03:26:51;;;;;;;6.18;3.85;;;;;;;2.29;98.42;94977.06;2098482;28;20048;-63
2024/02/25 03:27:52;;;;;;;8.50;4.40;;;;;;;2.30;98.07;94978.75;2097903;28;20055;-63
2024/02/25 03:28:53;;;;;;;5.78;3.83;;;;;;;2.29;98.30;94978.78;2088985;28;20428;-63
2024/02/25 03:29:54;;;;;;;8.88;3.78;;;;;;;2.29;98.26;94982.19;2089436;28;20048;-63
2024/02/25 03:30:56;;;;;;;5.95;3.70;;;;;;;2.34;98.03;94974.34;2098057;28;20052;-63
2024/02/25 03:31:57;;;;;;;5.63;3.88;;;;;;;2.35;97.88;94982.00;2098336;28;20404;-62
2024/02/25 03:33:01;;;;;;;7.43;3.80;;;;;;;2.38;97.54;94971.66;2097606;28;20036;-63
2024/02/25 03:34:02;;;;;;;7.22;3.67;;;;;;;2.42;97.33;94974.97;2098545;28;20051;-61
2024/02/25 03:35:04;;;;;;;6.60;4.20;;;;;;;2.43;97.18;94982.59;2098439;28;20040;-62
2024/02/25 03:36:05;;;;;;;6.00;3.38;;;;;;;2.44;97.05;94986.00;2097928;28;20052;-62
2024/02/25 03:37:06;;;;;;;7.88;4.35;;;;;;;2.41;96.96;94984.38;2098468;28;20047;-62
2024/02/25 03:38:07;;;;;;;9.07;4.20;;;;;;;2.42;97.17;94988.59;2098158;28;20492;-63
2024/02/25 03:39:08;;;;;;;6.30;3.92;;;;;;;2.42;97.54;94982.63;2098057;28;20051;-62
2024/02/25 03:40:10;;;;;;;7.95;3.92;;;;;;;2.41;97.23;94991.22;2098522;28;20036;-63
2024/02/25 03:41:11;;;;;;;7.22;4.38;;;;;;;2.38;97.38;94983.63;2098411;28;20051;-63
2024/02/25 03:42:12;;;;;;;7.90;4.10;;;;;;;2.38;97.52;94991.31;2089515;28;20574;-62
2024/02/25 03:43:14;;;;;;;6.13;4.13;;;;;;;2.40;97.34;94989.53;2089901;28;20037;-62
2024/02/25 03:44:15;;;;;;;7.25;4.45;;;;;;;2.39;97.44;94985.31;2097987;28;20412;-62
2024/02/25 03:45:17;;;;;;;7.35;4.38;;;;;;;2.38;97.54;94981.91;2097919;28;20052;-62
2024/02/25 03:46:18;;;;;;;6.82;3.92;;;;;;;2.33;97.66;94977.81;2097852;28;20044;-62
2024/02/25 03:47:19;;;;;;;9.60;5.20;;;;;;;2.36;97.73;94978.56;2097780;28;20053;-62
2024/02/25 03:48:20;;;;;;;6.68;4.53;;;;;;;2.37;97.64;94979.38;2097795;28;20053;-62
2024/02/25 03:49:21;;;;;;;8.10;4.68;;;;;;;2.36;97.62;94982.84;2098807;28;20032;-62
2024/02/25 03:50:22;;;;;;;8.55;4.40;;;;;;;2.39;97.64;94987.88;2098551;28;20032;-62
2024/02/25 03:51:23;;;;;;;9.57;4.95;;;;;;;2.43;97.46;94980.03;2098442;28;20044;-63
2024/02/25 03:52:24;;;;;;;8.70;5.00;;;;;;;2.43;97.47;94977.47;2098598;28;20037;-62
2024/02/25 03:53:26;;;;;;;7.68;4.68;;;;;;;2.40;97.25;94969.88;2097658;28;20147;-62
2024/02/25 03:54:27;;;;;;;6.93;3.92;;;;;;;2.39;97.44;94962.25;2097988;28;20424;-62
2024/02/25 03:55:28;;;;;;;8.15;4.43;;;;;;;2.37;97.20;94961.44;2098506;28;20065;-62
2024/02/25 03:56:29;;;;;;;6.35;3.97;;;;;;;2.38;97.36;94958.03;2098422;28;20468;-62
2024/02/25 03:57:30;;;;;;;7.38;3.70;;;;;;;2.40;97.10;94962.19;2097674;28;20052;-62
2024/02/25 03:58:31;;;;;;;6.75;3.83;;;;;;;2.43;96.72;94963.81;2098011;28;20056;-63
2024/02/25 03:59:33;;;;;;;10.10;5.00;;;;;;;2.46;96.99;94958.59;2098936;28;20455;-64
2024/02/25 04:00:34;;;;;;;5.82;4.30;;;;;;;2.50;96.84;94967.03;2097880;28;20373;-63
2024/02/25 04:01:35;;;;;;;8.25;4.50;;;;;;;2.51;97.00;94966.97;2088912;28;20041;-63
2024/02/25 04:02:36;;;;;;;6.43;4.43;;;;;;;2.49;96.90;94962.81;2081601;28;20053;-62
2024/02/25 04:03:37;;;;;;;6.32;3.95;;;;;;;2.50;96.77;94959.34;2089469;28;20049;-62
2024/02/25 04:04:43;;;;;;;9.30;4.32;;;;;;;2.50;96.72;94970.41;2097664;28;20055;-62
2024/02/25 04:05:44;;;;;;;10.57;4.25;;;;;;;2.52;96.84;94963.53;2098733;28;20040;-62
2024/02/25 04:06:45;;;;;;;7.10;4.43;;;;;;;2.51;96.60;94961.84;2098411;28;20403;-62
2024/02/25 04:07:46;;;;;;;8.30;4.43;;;;;;;2.52;96.70;94965.25;2098332;28;20044;-62
2024/02/25 04:08:47;;;;;;;8.07;4.40;;;;;;;2.50;96.64;94956.78;2097692;28;20044;-62
2024/02/25 04:09:48;;;;;;;7.85;4.80;;;;;;;2.52;96.80;94970.38;2097369;28;20476;-62
2024/02/25 04:10:49;;;;;;;6.75;3.95;;;;;;;2.51;96.75;94963.56;2088834;28;20048;-63
2024/02/25 04:11:50;;;;;;;6.80;4.25;;;;;;;2.51;96.67;94964.41;2089390;28;20049;-62
2024/02/25 04:12:52;;;;;;;6.63;4.43;;;;;;;2.51;96.85;94971.25;2098415;28;20587;-62
2024/02/25 04:13:53;;;;;;;7.15;4.07;;;;;;;2.49;97.09;94971.31;2098605;28;20028;-64
2024/02/25 04:14:54;;;;;;;7.70;4.22;;;;;;;2.49;96.90;94975.63;2097555;28;20048;-63
2024/02/25 04:15:55;;;;;;;6.18;3.92;;;;;;;2.49;97.09;94967.94;2098518;28;20036;-62
2024/02/25 04:16:56;;;;;;;7.80;4.45;;;;;;;2.50;96.71;94964.47;2097270;28;20048;-62
2024/02/25 04:17:57;;;;;;;7.03;4.00;;;;;;;2.52;96.93;94967.81;2097866;28;20480;-62
2024/02/25 04:18:58;;;;;;;6.70;3.47;;;;;;;2.52;96.64;94973.78;2098324;28;20044;-62
2024/02/25 04:20:02;;;;;;;5.97;3.50;;;;;;;2.53;96.86;94965.19;2098013;28;20051;-63
2024/02/25 04:21:03;;;;;;;6.95;3.95;;;;;;;2.55;96.65;94968.56;2098235;28;20036;-63
2024/02/25 04:22:04;;;;;;;5.18;3.00;;;;;;;2.57;96.42;94968.50;2098255;28;20036;-62
2024/02/25 04:23:06;;;;;;;5.88;3.08;;;;;;;2.54;96.56;94956.63;2098240;28;20048;-62
2024/02/25 04:24:07;;;;;;;5.55;3.03;;;;;;;2.57;96.08;94958.25;2097547;28;20044;-62
2024/02/25 04:25:09;;;;;;;6.30;2.95;;;;;;;2.58;96.09;94957.34;2098396;28;20039;-63
2024/02/25 04:26:10;;;;;;;6.05;3.10;;;;;;;2.61;96.04;94959.81;2098141;28;20044;-62
2024/02/25 04:27:11;;;;;;;5.20;3.30;;;;;;;2.57;96.48;94961.66;2099745;28;20045;-62
2024/02/25 04:28:12;;;;;;;4.75;3.08;;;;;;;2.60;96.00;94960.72;2099257;28;20041;-62
2024/02/25 04:29:13;;;;;;;4.88;2.95;;;;;;;2.60;95.96;94961.56;2100141;28;20137;-62
2024/02/25 04:30:15;;;;;;;5.40;3.00;;;;;;;2.60;95.93;94953.88;2099966;28;20044;-62
2024/02/25 04:31:16;;;;;;;4.25;2.85;;;;;;;2.60;95.89;94953.88;2099129;28;20059;-62
2024/02/25 04:32:17;;;;;;;4.20;2.70;;;;;;;2.60;95.89;94959.00;2099759;28;20484;-63
2024/02/25 04:33:18;;;;;;;6.43;3.00;;;;;;;2.61;95.96;94955.53;2099445;28;20040;-63
2024/02/25 04:34:19;;;;;;;4.72;2.85;;;;;;;2.67;95.70;94953.66;2099497;28;20059;-63
2024/02/25 04:35:21;;;;;;;4.75;2.75;;;;;;;2.68;95.14;94956.19;2100090;28;20479;-63
2024/02/25 04:36:22;;;;;;;5.20;2.80;;;;;;;2.72;95.08;94950.03;2099759;28;20404;-62
2024/02/25 04:37:23;;;;;;;3.75;2.65;;;;;;;2.71;95.05;94958.63;2100018;28;20036;-62
2024/02/25 04:38:24;;;;;;;4.72;2.47;;;;;;;2.69;95.08;94957.00;2099471;28;20060;-63
2024/02/25 04:39:25;;;;;;;5.35;2.60;;;;;;;2.72;95.07;94960.31;2099196;28;20472;-63
2024/02/25 04:40:26;;;;;;;2.85;1.92;;;;;;;2.76;94.69;94955.94;2090600;28;20040;-63
2024/02/25 04:41:28;;;;;;;4.40;2.47;;;;;;;2.77;94.36;94955.84;2090344;28;20057;-63
2024/02/25 04:42:29;;;;;;;3.40;1.88;;;;;;;2.79;94.06;94954.09;2099760;28;20041;-62
2024/02/25 04:43:30;;;;;;;4.18;2.05;;;;;;;2.81;93.58;94954.88;2099141;28;20044;-63
2024/02/25 04:44:31;;;;;;;3.22;1.90;;;;;;;2.82;93.65;94956.53;2099661;28;20396;-63
2024/02/25 04:45:32;;;;;;;4.63;2.10;;;;;;;2.82;93.49;94948.84;2099143;28;20048;-62
2024/02/25 04:46:33;;;;;;;3.55;2.10;;;;;;;2.83;93.23;94942.00;2099768;28;20048;-62
2024/02/25 04:47:35;;;;;;;3.67;2.10;;;;;;;2.81;93.37;94954.88;2099015;28;20052;-62
2024/02/25 04:48:38;;;;;;;3.72;1.70;;;;;;;2.82;93.07;94945.47;2099695;28;20040;-62
2024/02/25 04:49:39;;;;;;;5.07;2.38;;;;;;;2.80;92.98;94945.50;2099483;28;20056;-62
2024/02/25 04:50:40;;;;;;;4.10;1.70;;;;;;;2.79;93.26;94951.53;2099167;28;20495;-62